Terminal Aerodrome Forecast
Issued by NWS Charleston, WV

Current Version | Previous Version | Graphics & Text | Print | Product List | Glossary On
Versions: 1 2 3 4 5 6 7 8 9 10 11 12 13 14 15 16 17 18 19 20 21 22 23
415
FTUS41 KRLX 020913 AAB
TAFEKN
TAF AMD
KEKN 020913Z 0209/0306 VRB03KT 4SM BR BKN050
     FM021300 24006KT P6SM BKN025
     FM021600 25011G18KT P6SM BKN035
     FM022300 27007KT P6SM BKN050=

USA.gov is the U.S. government's official web portal to all federal, state and local government web resources and services.